sensor_id;sensor_type;location;lat;lon;timestamp;pressure;altitude;pressure_sealevel;temperature;humidity
65614;BME280;52283;49.292;10.572;2023-05-07T00:01:00;96488.06;;;11.58;100.00
65614;BME280;52283;49.292;10.572;2023-05-07T00:03:29;96481.69;;;11.58;100.00
65614;BME280;52283;49.292;10.572;2023-05-07T00:05:55;96486.28;;;11.50;100.00
65614;BME280;52283;49.292;10.572;2023-05-07T00:08:21;96487.81;;;11.51;100.00
65614;BME280;52283;49.292;10.572;2023-05-07T00:10:48;96489.81;;;11.45;100.00
65614;BME280;52283;49.292;10.572;2023-05-07T00:13:15;96489.09;;;11.50;100.00
65614;BME280;52283;49.292;10.572;2023-05-07T00:15:41;96491.13;;;11.49;100.00
65614;BME280;52283;49.292;10.572;2023-05-07T00:18:08;96503.06;;;11.55;100.00
65614;BME280;52283;49.292;10.572;2023-05-07T00:20:35;96502.81;;;11.42;100.00
65614;BME280;52283;49.292;10.572;2023-05-07T00:23:02;96488.31;;;11.49;100.00
65614;BME280;52283;49.292;10.572;2023-05-07T00:25:28;96488.31;;;11.55;100.00
65614;BME280;52283;49.292;10.572;2023-05-07T00:27:55;96488.31;;;11.49;100.00
65614;BME280;52283;49.292;10.572;2023-05-07T00:30:22;96482.72;;;11.49;100.00
65614;BME280;52283;49.292;10.572;2023-05-07T00:32:49;96486.03;;;11.53;100.00
65614;BME280;52283;49.292;10.572;2023-05-07T00:35:16;96480.66;;;11.44;100.00
65614;BME280;52283;49.292;10.572;2023-05-07T00:37:43;96481.69;;;11.41;100.00
65614;BME280;52283;49.292;10.572;2023-05-07T00:40:10;96478.13;;;11.35;100.00
65614;BME280;52283;49.292;10.572;2023-05-07T00:42:37;96489.84;;;11.28;100.00
65614;BME280;52283;49.292;10.572;2023-05-07T00:45:05;96484.50;;;11.30;100.00
65614;BME280;52283;49.292;10.572;2023-05-07T00:47:33;96474.81;;;11.42;100.00
65614;BME280;52283;49.292;10.572;2023-05-07T00:49:59;96475.09;;;11.50;100.00
65614;BME280;52283;49.292;10.572;2023-05-07T00:52:26;96475.34;;;11.29;100.00
65614;BME280;52283;49.292;10.572;2023-05-07T00:54:55;96467.44;;;11.45;100.00
65614;BME280;52283;49.292;10.572;2023-05-07T00:57:21;96470.75;;;11.66;100.00
65614;BME280;52283;49.292;10.572;2023-05-07T00:59:51;96467.94;;;11.71;100.00
65614;BME280;52283;49.292;10.572;2023-05-07T01:02:18;96468.72;;;11.55;100.00
65614;BME280;52283;49.292;10.572;2023-05-07T01:04:44;96465.13;;;11.66;100.00
65614;BME280;52283;49.292;10.572;2023-05-07T01:07:11;96469.50;;;11.67;100.00
65614;BME280;52283;49.292;10.572;2023-05-07T01:09:38;96469.72;;;11.74;100.00
65614;BME280;52283;49.292;10.572;2023-05-07T01:12:07;96474.56;;;11.79;100.00
65614;BME280;52283;49.292;10.572;2023-05-07T01:14:34;96471.25;;;11.64;100.00
65614;BME280;52283;49.292;10.572;2023-05-07T01:17:01;96469.47;;;11.72;100.00
65614;BME280;52283;49.292;10.572;2023-05-07T01:19:28;96472.53;;;11.74;100.00
65614;BME280;52283;49.292;10.572;2023-05-07T01:22:01;96476.63;;;11.51;100.00
65614;BME280;52283;49.292;10.572;2023-05-07T01:24:30;96470.50;;;11.41;100.00
65614;BME280;52283;49.292;10.572;2023-05-07T01:26:56;96470.53;;;11.47;100.00
65614;BME280;52283;49.292;10.572;2023-05-07T01:29:23;96460.31;;;11.16;100.00
65614;BME280;52283;49.292;10.572;2023-05-07T01:31:50;96463.34;;;10.84;100.00
65614;BME280;52283;49.292;10.572;2023-05-07T01:34:19;96447.00;;;10.55;100.00
65614;BME280;52283;49.292;10.572;2023-05-07T01:36:46;96452.88;;;10.68;100.00
65614;BME280;52283;49.292;10.572;2023-05-07T01:39:14;96449.88;;;10.99;100.00
65614;BME280;52283;49.292;10.572;2023-05-07T01:41:43;96450.16;;;11.24;100.00
65614;BME280;52283;49.292;10.572;2023-05-07T01:44:12;96460.84;;;11.37;100.00
65614;BME280;52283;49.292;10.572;2023-05-07T01:46:39;96463.63;;;11.20;100.00
65614;BME280;52283;49.292;10.572;2023-05-07T01:49:06;96464.09;;;11.02;100.00
65614;BME280;52283;49.292;10.572;2023-05-07T01:51:33;96466.94;;;11.13;100.00
65614;BME280;52283;49.292;10.572;2023-05-07T01:54:00;96466.34;;;10.81;100.00
65614;BME280;52283;49.292;10.572;2023-05-07T01:56:26;96455.34;;;10.49;100.00
65614;BME280;52283;49.292;10.572;2023-05-07T01:58:54;96461.25;;;10.68;100.00
65614;BME280;52283;49.292;10.572;2023-05-07T02:01:20;96463.03;;;10.71;100.00
65614;BME280;52283;49.292;10.572;2023-05-07T02:03:47;96464.38;;;10.98;100.00
65614;BME280;52283;49.292;10.572;2023-05-07T02:06:13;96459.03;;;11.22;100.00
65614;BME280;52283;49.292;10.572;2023-05-07T02:08:40;96470.50;;;11.24;100.00
65614;BME280;52283;49.292;10.572;2023-05-07T02:11:06;96461.88;;;11.28;100.00
65614;BME280;52283;49.292;10.572;2023-05-07T02:13:34;96457.00;;;10.89;100.00
65614;BME280;52283;49.292;10.572;2023-05-07T02:16:02;96455.75;;;11.13;100.00
65614;BME280;52283;49.292;10.572;2023-05-07T02:18:29;96452.19;;;11.23;100.00
65614;BME280;52283;49.292;10.572;2023-05-07T02:20:56;96458.31;;;11.27;100.00
65614;BME280;52283;49.292;10.572;2023-05-07T02:23:23;96461.59;;;11.32;100.00
65614;BME280;52283;49.292;10.572;2023-05-07T02:25:49;96460.84;;;11.31;100.00
65614;BME280;52283;49.292;10.572;2023-05-07T02:28:16;96456.00;;;11.37;100.00
65614;BME280;52283;49.292;10.572;2023-05-07T02:30:42;96459.81;;;11.40;100.00
65614;BME280;52283;49.292;10.572;2023-05-07T02:33:10;96454.75;;;11.33;100.00
65614;BME280;52283;49.292;10.572;2023-05-07T02:35:37;96460.84;;;11.31;100.00
65614;BME280;52283;49.292;10.572;2023-05-07T02:38:04;96462.38;;;11.26;100.00
65614;BME280;52283;49.292;10.572;2023-05-07T02:40:30;96461.34;;;11.18;100.00
65614;BME280;52283;49.292;10.572;2023-05-07T02:42:58;96461.34;;;11.35;100.00
65614;BME280;52283;49.292;10.572;2023-05-07T02:45:25;96457.53;;;11.27;100.00
65614;BME280;52283;49.292;10.572;2023-05-07T02:47:51;96463.56;;;10.81;100.00
65614;BME280;52283;49.292;10.572;2023-05-07T02:50:19;96453.69;;;10.96;100.00
65614;BME280;52283;49.292;10.572;2023-05-07T02:52:46;96458.28;;;11.11;100.00
65614;BME280;52283;49.292;10.572;2023-05-07T02:55:13;96456.75;;;11.15;100.00
65614;BME280;52283;49.292;10.572;2023-05-07T02:57:40;96451.94;;;11.21;100.00
65614;BME280;52283;49.292;10.572;2023-05-07T03:00:11;96463.38;;;11.18;100.00
65614;BME280;52283;49.292;10.572;2023-05-07T03:02:37;96452.69;;;11.22;100.00
65614;BME280;52283;49.292;10.572;2023-05-07T03:05:05;96456.78;;;11.26;100.00
65614;BME280;52283;49.292;10.572;2023-05-07T03:07:33;96456.00;;;11.20;100.00
65614;BME280;52283;49.292;10.572;2023-05-07T03:09:59;96447.88;;;11.11;100.00
65614;BME280;52283;49.292;10.572;2023-05-07T03:12:26;96448.38;;;11.10;100.00
65614;BME280;52283;49.292;10.572;2023-05-07T03:14:52;96447.09;;;11.11;100.00
65614;BME280;52283;49.292;10.572;2023-05-07T03:17:19;96452.19;;;11.12;100.00
65614;BME280;52283;49.292;10.572;2023-05-07T03:19:46;96453.22;;;11.04;100.00
65614;BME280;52283;49.292;10.572;2023-05-07T03:22:12;96443.78;;;11.01;100.00
65614;BME280;52283;49.292;10.572;2023-05-07T03:24:40;96436.94;;;11.13;100.00
65614;BME280;52283;49.292;10.572;2023-05-07T03:27:07;96447.34;;;11.13;100.00
65614;BME280;52283;49.292;10.572;2023-05-07T03:29:33;96446.59;;;11.07;100.00
65614;BME280;52283;49.292;10.572;2023-05-07T03:32:00;96447.84;;;10.94;100.00
65614;BME280;52283;49.292;10.572;2023-05-07T03:34:26;96438.19;;;11.01;100.00
65614;BME280;52283;49.292;10.572;2023-05-07T03:36:53;96445.28;;;11.02;100.00
65614;BME280;52283;49.292;10.572;2023-05-07T03:39:19;96445.84;;;11.06;100.00
65614;BME280;52283;49.292;10.572;2023-05-07T03:41:47;96452.94;;;11.13;100.00
65614;BME280;52283;49.292;10.572;2023-05-07T03:44:13;96456.53;;;11.24;100.00
65614;BME280;52283;49.292;10.572;2023-05-07T03:46:40;96447.38;;;11.29;100.00
65614;BME280;52283;49.292;10.572;2023-05-07T03:49:06;96455.75;;;11.41;100.00
65614;BME280;52283;49.292;10.572;2023-05-07T03:51:33;96457.28;;;11.42;100.00
65614;BME280;52283;49.292;10.572;2023-05-07T03:54:01;96465.41;;;11.34;100.00
65614;BME280;52283;49.292;10.572;2023-05-07T03:56:27;96471.00;;;11.34;100.00
65614;BME280;52283;49.292;10.572;2023-05-07T03:58:56;96467.22;;;11.26;100.00
65614;BME280;52283;49.292;10.572;2023-05-07T04:01:22;96473.81;;;11.34;100.00
65614;BME280;52283;49.292;10.572;2023-05-07T04:03:48;96472.03;;;11.37;100.00
65614;BME280;52283;49.292;10.572;2023-05-07T04:06:15;96478.88;;;11.19;100.00
65614;BME280;52283;49.292;10.572;2023-05-07T04:08:42;96481.69;;;11.36;100.00
65614;BME280;52283;49.292;10.572;2023-05-07T04:11:08;96482.72;;;11.38;100.00
65614;BME280;52283;49.292;10.572;2023-05-07T04:13:35;96483.22;;;11.31;100.00
65614;BME280;52283;49.292;10.572;2023-05-07T04:16:04;96491.09;;;11.44;100.00
65614;BME280;52283;49.292;10.572;2023-05-07T04:18:31;96492.66;;;11.50;100.00
65614;BME280;52283;49.292;10.572;2023-05-07T04:20:57;96492.91;;;11.52;100.00
65614;BME280;52283;49.292;10.572;2023-05-07T04:23:23;96485.50;;;11.55;100.00
65614;BME280;52283;49.292;10.572;2023-05-07T04:25:50;96485.53;;;11.49;100.00
65614;BME280;52283;49.292;10.572;2023-05-07T04:28:17;96487.75;;;11.00;100.00
65614;BME280;52283;49.292;10.572;2023-05-07T04:30:44;96489.00;;;10.94;100.00
65614;BME280;52283;49.292;10.572;2023-05-07T04:33:13;96474.31;;;11.10;100.00
65614;BME280;52283;49.292;10.572;2023-05-07T04:35:40;96478.91;;;11.41;100.00
65614;BME280;52283;49.292;10.572;2023-05-07T04:38:06;96482.47;;;11.53;100.00
65614;BME280;52283;49.292;10.572;2023-05-07T04:40:33;96476.09;;;11.69;100.00
65614;BME280;52283;49.292;10.572;2023-05-07T04:43:01;96472.78;;;11.76;100.00
65614;BME280;52283;49.292;10.572;2023-05-07T04:45:28;96471.53;;;11.88;100.00
65614;BME280;52283;49.292;10.572;2023-05-07T04:47:54;96475.81;;;12.01;100.00
65614;BME280;52283;49.292;10.572;2023-05-07T04:50:22;96470.94;;;12.07;100.00
65614;BME280;52283;49.292;10.572;2023-05-07T04:52:49;96475.03;;;12.11;100.00
65614;BME280;52283;49.292;10.572;2023-05-07T04:55:16;96471.91;;;12.26;100.00
65614;BME280;52283;49.292;10.572;2023-05-07T04:57:42;96487.44;;;12.27;100.00
65614;BME280;52283;49.292;10.572;2023-05-07T05:00:09;96488.22;;;12.33;100.00
65614;BME280;52283;49.292;10.572;2023-05-07T05:02:36;96492.03;;;12.30;100.00
65614;BME280;52283;49.292;10.572;2023-05-07T05:05:03;96494.09;;;12.24;100.00
65614;BME280;52283;49.292;10.572;2023-05-07T05:07:31;96502.50;;;12.18;100.00
65614;BME280;52283;49.292;10.572;2023-05-07T05:09:58;96500.44;;;12.36;100.00
65614;BME280;52283;49.292;10.572;2023-05-07T05:12:24;96502.94;;;12.45;100.00
65614;BME280;52283;49.292;10.572;2023-05-07T05:14:51;96511.56;;;12.58;100.00
65614;BME280;52283;49.292;10.572;2023-05-07T05:17:17;96513.56;;;12.63;100.00
65614;BME280;52283;49.292;10.572;2023-05-07T05:19:44;96512.06;;;12.57;100.00
65614;BME280;52283;49.292;10.572;2023-05-07T05:22:10;96519.91;;;12.75;100.00
65614;BME280;52283;49.292;10.572;2023-05-07T05:24:38;96520.31;;;12.90;100.00
65614;BME280;52283;49.292;10.572;2023-05-07T05:27:05;96517.50;;;12.96;100.00
65614;BME280;52283;49.292;10.572;2023-05-07T05:29:31;96527.41;;;13.02;100.00
65614;BME280;52283;49.292;10.572;2023-05-07T05:31:58;96519.47;;;13.06;100.00
65614;BME280;52283;49.292;10.572;2023-05-07T05:34:24;96528.69;;;13.01;100.00
65614;BME280;52283;49.292;10.572;2023-05-07T05:36:51;96521.41;;;12.81;100.00
65614;BME280;52283;49.292;10.572;2023-05-07T05:39:17;96523.16;;;12.85;100.00
65614;BME280;52283;49.292;10.572;2023-05-07T05:41:45;96525.50;;;12.75;100.00
65614;BME280;52283;49.292;10.572;2023-05-07T05:44:12;96525.66;;;12.99;100.00
65614;BME280;52283;49.292;10.572;2023-05-07T05:46:38;96535.47;;;12.70;100.00
65614;BME280;52283;49.292;10.572;2023-05-07T05:49:05;96528.84;;;12.73;100.00
65614;BME280;52283;49.292;10.572;2023-05-07T05:51:32;96527.72;;;12.93;100.00
65614;BME280;52283;49.292;10.572;2023-05-07T05:53:58;96534.16;;;12.77;100.00
65614;BME280;52283;49.292;10.572;2023-05-07T05:56:25;96537.38;;;12.98;100.00
65614;BME280;52283;49.292;10.572;2023-05-07T05:58:52;96544.16;;;13.25;100.00
65614;BME280;52283;49.292;10.572;2023-05-07T06:01:19;96547.34;;;13.46;100.00
65614;BME280;52283;49.292;10.572;2023-05-07T06:03:45;96549.84;;;13.55;100.00
65614;BME280;52283;49.292;10.572;2023-05-07T06:06:12;96538.16;;;13.45;100.00
65614;BME280;52283;49.292;10.572;2023-05-07T06:08:39;96548.97;;;13.65;100.00
65614;BME280;52283;49.292;10.572;2023-05-07T06:11:06;96545.53;;;13.48;100.00
65614;BME280;52283;49.292;10.572;2023-05-07T06:13:32;96549.47;;;13.28;100.00
65614;BME280;52283;49.292;10.572;2023-05-07T06:16:00;96540.47;;;13.77;100.00
65614;BME280;52283;49.292;10.572;2023-05-07T06:18:27;96547.47;;;13.94;100.00
65614;BME280;52283;49.292;10.572;2023-05-07T06:20:53;96540.31;;;13.93;100.00
65614;BME280;52283;49.292;10.572;2023-05-07T06:23:20;96547.16;;;13.32;100.00
65614;BME280;52283;49.292;10.572;2023-05-07T06:25:48;96545.66;;;13.67;100.00
65614;BME280;52283;49.292;10.572;2023-05-07T06:28:15;96553.75;;;13.40;100.00
65614;BME280;52283;49.292;10.572;2023-05-07T06:30:42;96551.75;;;13.35;100.00
65614;BME280;52283;49.292;10.572;2023-05-07T06:33:10;96544.97;;;13.55;100.00
65614;BME280;52283;49.292;10.572;2023-05-07T06:35:36;96555.81;;;13.76;100.00
65614;BME280;52283;49.292;10.572;2023-05-07T06:38:03;96558.56;;;13.81;100.00
65614;BME280;52283;49.292;10.572;2023-05-07T06:40:29;96550.34;;;14.13;100.00
65614;BME280;52283;49.292;10.572;2023-05-07T06:42:55;96555.88;;;14.24;100.00
65614;BME280;52283;49.292;10.572;2023-05-07T06:45:22;96556.22;;;14.15;100.00
65614;BME280;52283;49.292;10.572;2023-05-07T06:47:49;96560.41;;;13.73;100.00
65614;BME280;52283;49.292;10.572;2023-05-07T06:50:17;96556.06;;;14.56;100.00
65614;BME280;52283;49.292;10.572;2023-05-07T06:52:43;96564.19;;;14.35;100.00
65614;BME280;52283;49.292;10.572;2023-05-07T06:55:10;96561.56;;;14.19;100.00
65614;BME280;52283;49.292;10.572;2023-05-07T06:57:37;96560.47;;;14.52;100.00
65614;BME280;52283;49.292;10.572;2023-05-07T07:00:06;96564.66;;;14.45;100.00
65614;BME280;52283;49.292;10.572;2023-05-07T07:02:34;96552.91;;;14.17;100.00
65614;BME280;52283;49.292;10.572;2023-05-07T07:05:00;96556.28;;;14.34;100.00
65614;BME280;52283;49.292;10.572;2023-05-07T07:07:28;96556.91;;;13.97;100.00
65614;BME280;52283;49.292;10.572;2023-05-07T07:09:55;96556.72;;;14.68;100.00
65614;BME280;52283;49.292;10.572;2023-05-07T07:12:21;96555.56;;;14.82;100.00
65614;BME280;52283;49.292;10.572;2023-05-07T07:14:50;96553.75;;;15.04;100.00
65614;BME280;52283;49.292;10.572;2023-05-07T07:17:16;96551.75;;;15.55;100.00
65614;BME280;52283;49.292;10.572;2023-05-07T07:19:42;96555.78;;;15.60;100.00
65614;BME280;52283;49.292;10.572;2023-05-07T07:22:09;96563.03;;;15.36;100.00
65614;BME280;52283;49.292;10.572;2023-05-07T07:24:37;96552.16;;;15.97;100.00
65614;BME280;52283;49.292;10.572;2023-05-07T07:27:04;96551.09;;;15.68;100.00
65614;BME280;52283;49.292;10.572;2023-05-07T07:29:30;96541.69;;;15.78;100.00
65614;BME280;52283;49.292;10.572;2023-05-07T07:31:57;96550.88;;;15.66;100.00
65614;BME280;52283;49.292;10.572;2023-05-07T07:34:23;96551.69;;;15.61;100.00
65614;BME280;52283;49.292;10.572;2023-05-07T07:36:49;96551.84;;;15.12;100.00
65614;BME280;52283;49.292;10.572;2023-05-07T07:39:16;96556.41;;;15.15;100.00
65614;BME280;52283;49.292;10.572;2023-05-07T07:41:44;96565.38;;;15.51;100.00
65614;BME280;52283;49.292;10.572;2023-05-07T07:44:10;96564.09;;;15.52;100.00
65614;BME280;52283;49.292;10.572;2023-05-07T07:46:38;96559.63;;;15.24;100.00
65614;BME280;52283;49.292;10.572;2023-05-07T07:49:04;96561.03;;;15.50;100.00
65614;BME280;52283;49.292;10.572;2023-05-07T07:51:31;96565.59;;;15.53;100.00
65614;BME280;52283;49.292;10.572;2023-05-07T07:53:57;96568.97;;;16.02;100.00
65614;BME280;52283;49.292;10.572;2023-05-07T07:56:24;96564.63;;;16.46;100.00
65614;BME280;52283;49.292;10.572;2023-05-07T07:58:52;96560.31;;;16.98;100.00
65614;BME280;52283;49.292;10.572;2023-05-07T08:01:18;96562.97;;;17.64;100.00
65614;BME280;52283;49.292;10.572;2023-05-07T08:03:44;96564.50;;;17.31;100.00
65614;BME280;52283;49.292;10.572;2023-05-07T08:06:11;96570.53;;;16.75;100.00
65614;BME280;52283;49.292;10.572;2023-05-07T08:08:37;96565.47;;;17.21;100.00
65614;BME280;52283;49.292;10.572;2023-05-07T08:11:04;96553.13;;;17.92;99.43
65614;BME280;52283;49.292;10.572;2023-05-07T08:13:30;96551.63;;;17.10;99.13
65614;BME280;52283;49.292;10.572;2023-05-07T08:15:58;96559.38;;;17.77;100.00
65614;BME280;52283;49.292;10.572;2023-05-07T08:18:25;96552.06;;;18.23;93.05
65614;BME280;52283;49.292;10.572;2023-05-07T08:20:53;96565.28;;;17.19;100.00
65614;BME280;52283;49.292;10.572;2023-05-07T08:23:20;96560.38;;;17.32;100.00
65614;BME280;52283;49.292;10.572;2023-05-07T08:25:46;96549.38;;;17.76;97.12
65614;BME280;52283;49.292;10.572;2023-05-07T08:28:13;96539.56;;;18.40;94.03
65614;BME280;52283;49.292;10.572;2023-05-07T08:30:39;96547.13;;;18.66;90.02
65614;BME280;52283;49.292;10.572;2023-05-07T08:33:08;96544.50;;;18.18;89.68
65614;BME280;52283;49.292;10.572;2023-05-07T08:35:35;96546.69;;;18.82;89.01
65614;BME280;52283;49.292;10.572;2023-05-07T08:38:01;96561.09;;;17.80;94.75
65614;BME280;52283;49.292;10.572;2023-05-07T08:40:28;96551.41;;;18.87;84.04
65614;BME280;52283;49.292;10.572;2023-05-07T08:42:56;96571.13;;;17.34;95.67
65614;BME280;52283;49.292;10.572;2023-05-07T08:45:23;96560.16;;;17.64;95.29
65614;BME280;52283;49.292;10.572;2023-05-07T08:47:52;96563.69;;;17.91;92.42
65614;BME280;52283;49.292;10.572;2023-05-07T08:50:22;96570.91;;;17.32;97.99
65614;BME280;52283;49.292;10.572;2023-05-07T08:52:48;96557.53;;;17.80;94.62
65614;BME280;52283;49.292;10.572;2023-05-07T08:55:15;96567.38;;;17.86;97.63
65614;BME280;52283;49.292;10.572;2023-05-07T08:57:41;96581.38;;;17.71;100.00
65614;BME280;52283;49.292;10.572;2023-05-07T09:00:09;96574.28;;;17.64;100.00
65614;BME280;52283;49.292;10.572;2023-05-07T09:02:36;96576.28;;;17.90;100.00
65614;BME280;52283;49.292;10.572;2023-05-07T09:05:02;96582.13;;;18.55;93.97
65614;BME280;52283;49.292;10.572;2023-05-07T09:07:31;96577.19;;;19.05;92.55
65614;BME280;52283;49.292;10.572;2023-05-07T09:09:57;96572.72;;;18.60;91.70
65614;BME280;52283;49.292;10.572;2023-05-07T09:12:24;96576.47;;;18.76;95.43
65614;BME280;52283;49.292;10.572;2023-05-07T09:14:51;96557.00;;;19.52;86.56
65614;BME280;52283;49.292;10.572;2023-05-07T09:17:17;96546.22;;;20.25;80.04
65614;BME280;52283;49.292;10.572;2023-05-07T09:19:44;96562.09;;;19.46;86.19
65614;BME280;52283;49.292;10.572;2023-05-07T09:22:11;96559.72;;;19.65;85.09
65614;BME280;52283;49.292;10.572;2023-05-07T09:24:40;96539.78;;;20.62;76.87
65614;BME280;52283;49.292;10.572;2023-05-07T09:27:07;96544.66;;;20.39;77.47
65614;BME280;52283;49.292;10.572;2023-05-07T09:29:35;96535.75;;;21.44;70.12
65614;BME280;52283;49.292;10.572;2023-05-07T09:32:01;96536.19;;;22.05;68.92
65614;BME280;52283;49.292;10.572;2023-05-07T09:34:28;96553.59;;;20.58;73.71
65614;BME280;52283;49.292;10.572;2023-05-07T09:36:55;96551.28;;;20.80;74.31
65614;BME280;52283;49.292;10.572;2023-05-07T09:39:23;96551.06;;;19.94;74.94
65614;BME280;52283;49.292;10.572;2023-05-07T09:41:51;96550.78;;;20.43;75.87
65614;BME280;52283;49.292;10.572;2023-05-07T09:44:20;96549.59;;;20.84;72.50
65614;BME280;52283;49.292;10.572;2023-05-07T09:46:50;96567.97;;;19.12;76.92
65614;BME280;52283;49.292;10.572;2023-05-07T09:49:22;96567.19;;;20.14;77.77
65614;BME280;52283;49.292;10.572;2023-05-07T09:51:50;96566.31;;;19.16;79.12
65614;BME280;52283;49.292;10.572;2023-05-07T09:54:18;96575.66;;;18.96;81.23
65614;BME280;52283;49.292;10.572;2023-05-07T09:56:44;96550.13;;;20.98;73.06
65614;BME280;52283;49.292;10.572;2023-05-07T09:59:14;96555.28;;;20.69;74.16
65614;BME280;52283;49.292;10.572;2023-05-07T10:01:42;96550.75;;;20.66;72.89
65614;BME280;52283;49.292;10.572;2023-05-07T10:04:09;96530.84;;;21.77;65.89
65614;BME280;52283;49.292;10.572;2023-05-07T10:06:37;96536.22;;;21.98;66.94
65614;BME280;52283;49.292;10.572;2023-05-07T10:09:05;96535.25;;;22.03;66.33
65614;BME280;52283;49.292;10.572;2023-05-07T10:11:32;96532.06;;;21.66;66.24
65614;BME280;52283;49.292;10.572;2023-05-07T10:13:59;96549.44;;;21.38;70.11
65614;BME280;52283;49.292;10.572;2023-05-07T10:16:29;96532.56;;;20.77;67.81
65614;BME280;52283;49.292;10.572;2023-05-07T10:18:57;96520.94;;;20.97;66.87
65614;BME280;52283;49.292;10.572;2023-05-07T10:21:27;96521.75;;;21.78;67.13
65614;BME280;52283;49.292;10.572;2023-05-07T10:23:58;96520.66;;;22.48;64.54
65614;BME280;52283;49.292;10.572;2023-05-07T10:26:27;96498.88;;;23.03;59.09
65614;BME280;52283;49.292;10.572;2023-05-07T10:28:59;96517.63;;;22.04;63.46
65614;BME280;52283;49.292;10.572;2023-05-07T10:31:42;96545.03;;;19.97;72.66
65614;BME280;52283;49.292;10.572;2023-05-07T10:34:12;96543.22;;;21.32;70.08
65614;BME280;52283;49.292;10.572;2023-05-07T10:36:41;96534.69;;;21.32;65.07
65614;BME280;52283;49.292;10.572;2023-05-07T10:39:08;96527.81;;;21.42;64.09
65614;BME280;52283;49.292;10.572;2023-05-07T10:41:34;96521.00;;;22.10;59.70
65614;BME280;52283;49.292;10.572;2023-05-07T10:44:02;96516.28;;;21.73;57.25
65614;BME280;52283;49.292;10.572;2023-05-07T10:46:28;96510.72;;;21.82;57.70
65614;BME280;52283;49.292;10.572;2023-05-07T10:49:12;96519.50;;;21.37;60.13
65614;BME280;52283;49.292;10.572;2023-05-07T10:51:39;96501.81;;;22.95;57.60
65614;BME280;52283;49.292;10.572;2023-05-07T10:54:19;96503.41;;;22.46;57.20
65614;BME280;52283;49.292;10.572;2023-05-07T10:56:46;96502.59;;;22.04;55.26
65614;BME280;52283;49.292;10.572;2023-05-07T10:59:34;96504.59;;;22.43;55.36
65614;BME280;52283;49.292;10.572;2023-05-07T11:02:06;96510.19;;;21.44;57.12
65614;BME280;52283;49.292;10.572;2023-05-07T11:04:36;96484.41;;;21.49;53.39
65614;BME280;52283;49.292;10.572;2023-05-07T11:07:31;96485.19;;;21.75;51.18
65614;BME280;52283;49.292;10.572;2023-05-07T11:09:59;96479.72;;;21.37;50.51
65614;BME280;52283;49.292;10.572;2023-05-07T11:12:54;96466.03;;;22.85;47.58
65614;BME280;52283;49.292;10.572;2023-05-07T11:15:35;96474.56;;;22.00;49.82
65614;BME280;52283;49.292;10.572;2023-05-07T11:18:02;96472.63;;;22.52;47.67
65614;BME280;52283;49.292;10.572;2023-05-07T11:20:59;96466.78;;;23.47;47.05
65614;BME280;52283;49.292;10.572;2023-05-07T11:26:43;96483.47;;;20.91;52.62
65614;BME280;52283;49.292;10.572;2023-05-07T11:29:14;96482.56;;;22.44;50.10
65614;BME280;52283;49.292;10.572;2023-05-07T11:31:41;96478.81;;;22.16;49.97
65614;BME280;52283;49.292;10.572;2023-05-07T11:34:07;96464.28;;;21.80;46.64
65614;BME280;52283;49.292;10.572;2023-05-07T11:36:36;96470.81;;;22.99;46.97
65614;BME280;52283;49.292;10.572;2023-05-07T11:39:23;96468.09;;;22.49;46.96
65614;BME280;52283;49.292;10.572;2023-05-07T11:41:49;96474.22;;;21.96;50.77
65614;BME280;52283;49.292;10.572;2023-05-07T11:44:16;96461.28;;;22.45;46.18
65614;BME280;52283;49.292;10.572;2023-05-07T11:46:43;96470.94;;;23.90;46.94
65614;BME280;52283;49.292;10.572;2023-05-07T11:49:10;96475.97;;;22.59;48.95
65614;BME280;52283;49.292;10.572;2023-05-07T11:51:38;96464.03;;;23.39;47.94
65614;BME280;52283;49.292;10.572;2023-05-07T11:54:06;96467.75;;;21.38;49.61
65614;BME280;52283;49.292;10.572;2023-05-07T11:56:34;96468.28;;;23.03;50.21
65614;BME280;52283;49.292;10.572;2023-05-07T11:59:01;96452.84;;;23.06;46.07
65614;BME280;52283;49.292;10.572;2023-05-07T12:01:27;96473.88;;;21.92;50.83
65614;BME280;52283;49.292;10.572;2023-05-07T12:03:54;96462.38;;;23.36;49.33
65614;BME280;52283;49.292;10.572;2023-05-07T12:06:20;96461.19;;;23.39;47.83
65614;BME280;52283;49.292;10.572;2023-05-07T12:08:48;96465.66;;;22.63;49.66
65614;BME280;52283;49.292;10.572;2023-05-07T12:11:16;96468.28;;;22.27;51.07
65614;BME280;52283;49.292;10.572;2023-05-07T12:13:43;96460.56;;;22.62;49.44
65614;BME280;52283;49.292;10.572;2023-05-07T12:16:10;96451.78;;;23.73;46.30
65614;BME280;52283;49.292;10.572;2023-05-07T12:18:37;96449.19;;;23.14;46.96
65614;BME280;52283;49.292;10.572;2023-05-07T12:21:05;96447.66;;;23.57;46.38
65614;BME280;52283;49.292;10.572;2023-05-07T12:23:33;96437.16;;;23.32;42.56
65614;BME280;52283;49.292;10.572;2023-05-07T12:26:01;96420.66;;;24.41;38.70
65614;BME280;52283;49.292;10.572;2023-05-07T12:28:28;96425.78;;;24.71;39.24
65614;BME280;52283;49.292;10.572;2023-05-07T12:30:56;96452.44;;;23.54;45.32
65614;BME280;52283;49.292;10.572;2023-05-07T12:33:24;96452.88;;;23.78;44.37
65614;BME280;52283;49.292;10.572;2023-05-07T12:35:53;96453.72;;;22.99;46.19
65614;BME280;52283;49.292;10.572;2023-05-07T12:38:20;96445.59;;;23.67;41.90
65614;BME280;52283;49.292;10.572;2023-05-07T12:40:48;96429.53;;;23.98;40.08
65614;BME280;52283;49.292;10.572;2023-05-07T12:43:18;96438.72;;;24.07;42.03
65614;BME280;52283;49.292;10.572;2023-05-07T12:45:46;96444.50;;;23.35;43.75
65614;BME280;52283;49.292;10.572;2023-05-07T12:48:13;96438.75;;;23.26;42.37